sensor_id;sensor_type;location;lat;lon;timestamp;pressure;altitude;pressure_sealevel;temperature;humidity
48563;BME280;34981;49.104;11.396;2024-01-06T00:00:36;96187.13;;;3.41;100.00
48563;BME280;34981;49.104;11.396;2024-01-06T00:03:04;96192.47;;;3.41;100.00
48563;BME280;34981;49.104;11.396;2024-01-06T00:05:31;96199.81;;;3.39;100.00
48563;BME280;34981;49.104;11.396;2024-01-06T00:07:58;96206.97;;;3.38;100.00
48563;BME280;34981;49.104;11.396;2024-01-06T00:10:25;96198.19;;;3.38;100.00
48563;BME280;34981;49.104;11.396;2024-01-06T00:12:53;96216.22;;;3.36;100.00
48563;BME280;34981;49.104;11.396;2024-01-06T00:15:20;96215.16;;;3.37;100.00
48563;BME280;34981;49.104;11.396;2024-01-06T00:17:48;96219.44;;;3.38;100.00
48563;BME280;34981;49.104;11.396;2024-01-06T00:20:15;96225.78;;;3.37;100.00
48563;BME280;34981;49.104;11.396;2024-01-06T00:22:42;96228.44;;;3.37;100.00
48563;BME280;34981;49.104;11.396;2024-01-06T00:25:11;96233.19;;;3.35;100.00
48563;BME280;34981;49.104;11.396;2024-01-06T00:27:38;96233.41;;;3.33;100.00
48563;BME280;34981;49.104;11.396;2024-01-06T00:30:05;96240.75;;;3.31;100.00
48563;BME280;34981;49.104;11.396;2024-01-06T00:32:33;96246.09;;;3.31;100.00
48563;BME280;34981;49.104;11.396;2024-01-06T00:35:03;96255.06;;;3.30;100.00
48563;BME280;34981;49.104;11.396;2024-01-06T00:37:31;96263.28;;;3.29;100.00
48563;BME280;34981;49.104;11.396;2024-01-06T00:39:59;96265.72;;;3.30;100.00
48563;BME280;34981;49.104;11.396;2024-01-06T00:42:26;96273.47;;;3.32;100.00
48563;BME280;34981;49.104;11.396;2024-01-06T00:44:53;96270.59;;;3.33;100.00
48563;BME280;34981;49.104;11.396;2024-01-06T00:47:20;96279.38;;;3.34;100.00
48563;BME280;34981;49.104;11.396;2024-01-06T00:49:51;96287.16;;;3.35;100.00
48563;BME280;34981;49.104;11.396;2024-01-06T00:52:18;96293.28;;;3.36;100.00
48563;BME280;34981;49.104;11.396;2024-01-06T00:54:45;96285.53;;;3.34;100.00
48563;BME280;34981;49.104;11.396;2024-01-06T00:57:14;96299.63;;;3.35;100.00
48563;BME280;34981;49.104;11.396;2024-01-06T00:59:41;96299.63;;;3.35;100.00
48563;BME280;34981;49.104;11.396;2024-01-06T01:02:08;96308.63;;;3.34;100.00
48563;BME280;34981;49.104;11.396;2024-01-06T01:04:35;96313.94;;;3.34;100.00
48563;BME280;34981;49.104;11.396;2024-01-06T01:07:03;96322.72;;;3.34;100.00
48563;BME280;34981;49.104;11.396;2024-01-06T01:09:30;96328.25;;;3.33;100.00
48563;BME280;34981;49.104;11.396;2024-01-06T01:11:57;96336.22;;;3.33;100.00
48563;BME280;34981;49.104;11.396;2024-01-06T01:14:24;96344.78;;;3.35;100.00
48563;BME280;34981;49.104;11.396;2024-01-06T01:16:51;96349.50;;;3.33;100.00
48563;BME280;34981;49.104;11.396;2024-01-06T01:19:19;96356.44;;;3.34;100.00
48563;BME280;34981;49.104;11.396;2024-01-06T01:21:46;96357.25;;;3.34;100.00
48563;BME280;34981;49.104;11.396;2024-01-06T01:24:13;96370.34;;;3.36;100.00
48563;BME280;34981;49.104;11.396;2024-01-06T01:26:40;96370.34;;;3.36;100.00
48563;BME280;34981;49.104;11.396;2024-01-06T01:29:07;96372.38;;;3.34;100.00
48563;BME280;34981;49.104;11.396;2024-01-06T01:31:34;96377.69;;;3.34;100.00
48563;BME280;34981;49.104;11.396;2024-01-06T01:34:02;96374.22;;;3.33;100.00
48563;BME280;34981;49.104;11.396;2024-01-06T01:36:29;96378.72;;;3.33;100.00
48563;BME280;34981;49.104;11.396;2024-01-06T01:38:56;96384.66;;;3.35;100.00
48563;BME280;34981;49.104;11.396;2024-01-06T01:41:24;96380.97;;;3.36;100.00
48563;BME280;34981;49.104;11.396;2024-01-06T01:43:51;96393.66;;;3.34;100.00
48563;BME280;34981;49.104;11.396;2024-01-06T01:46:25;96385.06;;;3.32;100.00
48563;BME280;34981;49.104;11.396;2024-01-06T01:48:56;96399.16;;;3.32;100.00
48563;BME280;34981;49.104;11.396;2024-01-06T01:51:24;96399.97;;;3.33;100.00
48563;BME280;34981;49.104;11.396;2024-01-06T01:53:53;96399.97;;;3.33;100.00
48563;BME280;34981;49.104;11.396;2024-01-06T01:56:20;96418.56;;;3.33;100.00
48563;BME280;34981;49.104;11.396;2024-01-06T01:58:47;96421.84;;;3.35;100.00
48563;BME280;34981;49.104;11.396;2024-01-06T02:01:15;96427.75;;;3.37;100.00
48563;BME280;34981;49.104;11.396;2024-01-06T02:03:42;96418.16;;;3.36;100.00
48563;BME280;34981;49.104;11.396;2024-01-06T02:06:12;96420.38;;;3.39;100.00
48563;BME280;34981;49.104;11.396;2024-01-06T02:08:40;96433.25;;;3.42;100.00
48563;BME280;34981;49.104;11.396;2024-01-06T02:11:07;96424.66;;;3.40;100.00
48563;BME280;34981;49.104;11.396;2024-01-06T02:13:35;96428.34;;;3.39;100.00
48563;BME280;34981;49.104;11.396;2024-01-06T02:16:05;96436.94;;;3.41;100.00
48563;BME280;34981;49.104;11.396;2024-01-06T02:18:33;96433.25;;;3.42;100.00
48563;BME280;34981;49.104;11.396;2024-01-06T02:21:00;96445.53;;;3.43;100.00
48563;BME280;34981;49.104;11.396;2024-01-06T02:23:28;96435.66;;;3.43;100.00
48563;BME280;34981;49.104;11.396;2024-01-06T02:25:56;96450.03;;;3.42;100.00
48563;BME280;34981;49.104;11.396;2024-01-06T02:28:23;96447.56;;;3.41;100.00
48563;BME280;34981;49.104;11.396;2024-01-06T02:30:50;96453.28;;;3.38;100.00
48563;BME280;34981;49.104;11.396;2024-01-06T02:33:17;96468.00;;;3.40;100.00
48563;BME280;34981;49.104;11.396;2024-01-06T02:35:46;96465.56;;;3.39;100.00
48563;BME280;34981;49.104;11.396;2024-01-06T02:38:13;96460.44;;;3.37;100.00
48563;BME280;34981;49.104;11.396;2024-01-06T02:40:40;96458.59;;;3.38;100.00
48563;BME280;34981;49.104;11.396;2024-01-06T02:43:09;96467.84;;;3.35;100.00
48563;BME280;34981;49.104;11.396;2024-01-06T02:45:37;96474.75;;;3.36;100.00
48563;BME280;34981;49.104;11.396;2024-01-06T02:48:04;96469.25;;;3.38;100.00
48563;BME280;34981;49.104;11.396;2024-01-06T02:50:31;96477.03;;;3.33;100.00
48563;BME280;34981;49.104;11.396;2024-01-06T02:52:58;96483.16;;;3.33;100.00
48563;BME280;34981;49.104;11.396;2024-01-06T02:55:26;96488.47;;;3.33;100.00
48563;BME280;34981;49.104;11.396;2024-01-06T02:57:53;96488.69;;;3.32;100.00
48563;BME280;34981;49.104;11.396;2024-01-06T03:00:20;96489.72;;;3.31;100.00
48563;BME280;34981;49.104;11.396;2024-01-06T03:02:47;96499.53;;;3.30;100.00
48563;BME280;34981;49.104;11.396;2024-01-06T03:05:14;96503.19;;;3.29;100.00
48563;BME280;34981;49.104;11.396;2024-01-06T03:07:42;96500.78;;;3.28;100.00
48563;BME280;34981;49.104;11.396;2024-01-06T03:10:09;96511.41;;;3.28;100.00
48563;BME280;34981;49.104;11.396;2024-01-06T03:12:36;96519.13;;;3.29;100.00
48563;BME280;34981;49.104;11.396;2024-01-06T03:15:03;96526.53;;;3.27;100.00
48563;BME280;34981;49.104;11.396;2024-01-06T03:17:30;96522.03;;;3.28;100.00
48563;BME280;34981;49.104;11.396;2024-01-06T03:19:58;96529.38;;;3.26;100.00
48563;BME280;34981;49.104;11.396;2024-01-06T03:22:25;96528.56;;;3.25;100.00
48563;BME280;34981;49.104;11.396;2024-01-06T03:24:52;96533.88;;;3.25;100.00
48563;BME280;34981;49.104;11.396;2024-01-06T03:27:19;96534.69;;;3.26;100.00
48563;BME280;34981;49.104;11.396;2024-01-06T03:29:47;96539.19;;;3.25;100.00
48563;BME280;34981;49.104;11.396;2024-01-06T03:32:14;96543.69;;;3.25;100.00
48563;BME280;34981;49.104;11.396;2024-01-06T03:34:41;96550.03;;;3.24;100.00
48563;BME280;34981;49.104;11.396;2024-01-06T03:37:08;96561.66;;;3.23;100.00
48563;BME280;34981;49.104;11.396;2024-01-06T03:39:35;96556.34;;;3.23;100.00
48563;BME280;34981;49.104;11.396;2024-01-06T03:42:03;96560.84;;;3.22;100.00
48563;BME280;34981;49.104;11.396;2024-01-06T03:44:30;96572.72;;;3.20;100.00
48563;BME280;34981;49.104;11.396;2024-01-06T03:47:00;96580.91;;;3.18;100.00
48563;BME280;34981;49.104;11.396;2024-01-06T03:49:27;96580.69;;;3.20;100.00
48563;BME280;34981;49.104;11.396;2024-01-06T03:51:54;96595.00;;;3.19;100.00
48563;BME280;34981;49.104;11.396;2024-01-06T03:54:22;96596.03;;;3.18;100.00
48563;BME280;34981;49.104;11.396;2024-01-06T03:56:49;96599.69;;;3.17;100.00
48563;BME280;34981;49.104;11.396;2024-01-06T03:59:17;96609.50;;;3.16;100.00
48563;BME280;34981;49.104;11.396;2024-01-06T04:01:44;96610.75;;;3.13;100.00
48563;BME280;34981;49.104;11.396;2024-01-06T04:04:11;96615.03;;;3.14;100.00
48563;BME280;34981;49.104;11.396;2024-01-06T04:06:38;96616.06;;;3.13;100.00
48563;BME280;34981;49.104;11.396;2024-01-06T04:09:05;96616.88;;;3.07;100.00
48563;BME280;34981;49.104;11.396;2024-01-06T04:11:33;96621.38;;;3.07;100.00
48563;BME280;34981;49.104;11.396;2024-01-06T04:14:00;96625.06;;;3.06;100.00
48563;BME280;34981;49.104;11.396;2024-01-06T04:16:27;96632.00;;;3.07;100.00
48563;BME280;34981;49.104;11.396;2024-01-06T04:18:54;96629.56;;;3.05;100.00
48563;BME280;34981;49.104;11.396;2024-01-06T04:21:22;96638.56;;;3.04;100.00
48563;BME280;34981;49.104;11.396;2024-01-06T04:23:49;96640.19;;;3.05;100.00
48563;BME280;34981;49.104;11.396;2024-01-06T04:26:16;96643.44;;;3.07;100.00
48563;BME280;34981;49.104;11.396;2024-01-06T04:28:43;96638.75;;;3.03;100.00
48563;BME280;34981;49.104;11.396;2024-01-06T04:31:11;96649.19;;;3.04;100.00
48563;BME280;34981;49.104;11.396;2024-01-06T04:33:38;96650.81;;;3.05;100.00
48563;BME280;34981;49.104;11.396;2024-01-06T04:36:07;96654.50;;;3.04;100.00
48563;BME280;34981;49.104;11.396;2024-01-06T04:38:34;96652.84;;;3.03;100.00
48563;BME280;34981;49.104;11.396;2024-01-06T04:41:02;96666.94;;;3.04;100.00
48563;BME280;34981;49.104;11.396;2024-01-06T04:43:29;96666.31;;;3.02;100.00
48563;BME280;34981;49.104;11.396;2024-01-06T04:45:56;96676.31;;;3.00;100.00
48563;BME280;34981;49.104;11.396;2024-01-06T04:48:24;96672.88;;;2.99;100.00
48563;BME280;34981;49.104;11.396;2024-01-06T04:50:52;96673.91;;;2.98;100.00
48563;BME280;34981;49.104;11.396;2024-01-06T04:53:19;96675.75;;;2.98;100.00
48563;BME280;34981;49.104;11.396;2024-01-06T04:55:46;96678.41;;;2.98;100.00
48563;BME280;34981;49.104;11.396;2024-01-06T04:58:13;96685.53;;;2.97;100.00
48563;BME280;34981;49.104;11.396;2024-01-06T05:00:40;96689.59;;;3.00;100.00
48563;BME280;34981;49.104;11.396;2024-01-06T05:03:08;96686.56;;;2.96;100.00
48563;BME280;34981;49.104;11.396;2024-01-06T05:05:35;96688.41;;;2.96;100.00
48563;BME280;34981;49.104;11.396;2024-01-06T05:08:02;96694.53;;;2.96;100.00
48563;BME280;34981;49.104;11.396;2024-01-06T05:10:30;96699.84;;;2.96;100.00
48563;BME280;34981;49.104;11.396;2024-01-06T05:12:57;96700.66;;;2.97;100.00
48563;BME280;34981;49.104;11.396;2024-01-06T05:15:24;96706.78;;;2.97;100.00
48563;BME280;34981;49.104;11.396;2024-01-06T05:17:51;96705.16;;;2.96;100.00
48563;BME280;34981;49.104;11.396;2024-01-06T05:20:18;96713.13;;;2.96;100.00
48563;BME280;34981;49.104;11.396;2024-01-06T05:22:45;96713.75;;;2.98;100.00
48563;BME280;34981;49.104;11.396;2024-01-06T05:25:13;96715.78;;;2.96;100.00
48563;BME280;34981;49.104;11.396;2024-01-06T05:27:40;96717.41;;;2.97;100.00
48563;BME280;34981;49.104;11.396;2024-01-06T05:30:07;96716.59;;;2.97;100.00
48563;BME280;34981;49.104;11.396;2024-01-06T05:32:36;96721.91;;;2.97;100.00
48563;BME280;34981;49.104;11.396;2024-01-06T05:35:04;96719.44;;;2.95;100.00
48563;BME280;34981;49.104;11.396;2024-01-06T05:37:31;96726.78;;;2.93;100.00
48563;BME280;34981;49.104;11.396;2024-01-06T05:39:59;96727.81;;;2.92;100.00
48563;BME280;34981;49.104;11.396;2024-01-06T05:42:29;96730.47;;;2.92;100.00
48563;BME280;34981;49.104;11.396;2024-01-06T05:44:56;96734.16;;;2.91;100.00
48563;BME280;34981;49.104;11.396;2024-01-06T05:47:23;96733.34;;;2.84;100.00
48563;BME280;34981;49.104;11.396;2024-01-06T05:49:50;96739.03;;;2.81;100.00
48563;BME280;34981;49.104;11.396;2024-01-06T05:52:17;96750.66;;;2.80;100.00
48563;BME280;34981;49.104;11.396;2024-01-06T05:54:44;96753.31;;;2.73;100.00
48563;BME280;34981;49.104;11.396;2024-01-06T05:57:12;96746.56;;;2.71;100.00
48563;BME280;34981;49.104;11.396;2024-01-06T05:59:39;96746.97;;;2.68;100.00
48563;BME280;34981;49.104;11.396;2024-01-06T06:02:06;96748.00;;;2.67;100.00
48563;BME280;34981;49.104;11.396;2024-01-06T06:04:33;96756.78;;;2.67;100.00
48563;BME280;34981;49.104;11.396;2024-01-06T06:07:00;96762.91;;;2.68;100.00
48563;BME280;34981;49.104;11.396;2024-01-06T06:09:28;96780.47;;;2.69;100.00
48563;BME280;34981;49.104;11.396;2024-01-06T06:11:56;96790.88;;;2.70;100.00
48563;BME280;34981;49.104;11.396;2024-01-06T06:14:23;96793.31;;;2.72;100.00
48563;BME280;34981;49.104;11.396;2024-01-06T06:16:54;96793.13;;;2.67;100.00
48563;BME280;34981;49.104;11.396;2024-01-06T06:19:21;96799.25;;;2.67;100.00
48563;BME280;34981;49.104;11.396;2024-01-06T06:21:48;96809.88;;;2.67;100.00
48563;BME280;34981;49.104;11.396;2024-01-06T06:24:16;96821.94;;;2.70;100.00
48563;BME280;34981;49.104;11.396;2024-01-06T06:26:43;96824.38;;;2.71;100.00
48563;BME280;34981;49.104;11.396;2024-01-06T06:29:10;96826.81;;;2.73;100.00
48563;BME280;34981;49.104;11.396;2024-01-06T06:31:37;96825.16;;;2.65;100.00
48563;BME280;34981;49.104;11.396;2024-01-06T06:34:04;96826.78;;;2.60;100.00
48563;BME280;34981;49.104;11.396;2024-01-06T06:36:35;96839.03;;;2.61;100.00
48563;BME280;34981;49.104;11.396;2024-01-06T06:39:02;96836.78;;;2.58;100.00
48563;BME280;34981;49.104;11.396;2024-01-06T06:41:31;96841.88;;;2.59;100.00
48563;BME280;34981;49.104;11.396;2024-01-06T06:43:58;96850.66;;;2.60;100.00
48563;BME280;34981;49.104;11.396;2024-01-06T06:46:26;96861.50;;;2.65;100.00
48563;BME280;34981;49.104;11.396;2024-01-06T06:48:53;96851.50;;;2.60;100.00
48563;BME280;34981;49.104;11.396;2024-01-06T06:51:22;96857.38;;;2.56;100.00
48563;BME280;34981;49.104;11.396;2024-01-06T06:53:52;96857.19;;;2.57;100.00
48563;BME280;34981;49.104;11.396;2024-01-06T06:56:19;96851.69;;;2.59;100.00
48563;BME280;34981;49.104;11.396;2024-01-06T06:58:46;96864.31;;;2.57;100.00
48563;BME280;34981;49.104;11.396;2024-01-06T07:01:14;96869.63;;;2.57;100.00
48563;BME280;34981;49.104;11.396;2024-01-06T07:03:42;96874.34;;;2.55;100.00
48563;BME280;34981;49.104;11.396;2024-01-06T07:06:13;96876.38;;;2.53;100.00
48563;BME280;34981;49.104;11.396;2024-01-06T07:08:40;96880.22;;;2.50;100.00
48563;BME280;34981;49.104;11.396;2024-01-06T07:11:09;96885.34;;;2.52;100.00
48563;BME280;34981;49.104;11.396;2024-01-06T07:13:38;96886.34;;;2.51;100.00
48563;BME280;34981;49.104;11.396;2024-01-06T07:16:05;96890.84;;;2.50;100.00
48563;BME280;34981;49.104;11.396;2024-01-06T07:18:44;96888.00;;;2.52;100.00
48563;BME280;34981;49.104;11.396;2024-01-06T07:21:12;96896.13;;;2.50;100.00
48563;BME280;34981;49.104;11.396;2024-01-06T07:23:39;96900.44;;;2.51;100.00
48563;BME280;34981;49.104;11.396;2024-01-06T07:26:06;96901.44;;;2.50;100.00
48563;BME280;34981;49.104;11.396;2024-01-06T07:28:35;96898.97;;;2.49;100.00
48563;BME280;34981;49.104;11.396;2024-01-06T07:31:02;96898.97;;;2.49;100.00
48563;BME280;34981;49.104;11.396;2024-01-06T07:33:32;96899.22;;;2.47;100.00
48563;BME280;34981;49.104;11.396;2024-01-06T07:35:59;96899.59;;;2.44;100.00
48563;BME280;34981;49.104;11.396;2024-01-06T07:38:26;96896.09;;;2.44;100.00
48563;BME280;34981;49.104;11.396;2024-01-06T07:40:54;96907.53;;;2.44;100.00
48563;BME280;34981;49.104;11.396;2024-01-06T07:43:22;96907.72;;;2.43;100.00
48563;BME280;34981;49.104;11.396;2024-01-06T07:45:49;96914.50;;;2.45;100.00
48563;BME280;34981;49.104;11.396;2024-01-06T07:48:17;96907.91;;;2.41;100.00
48563;BME280;34981;49.104;11.396;2024-01-06T07:50:45;96904.47;;;2.41;100.00
48563;BME280;34981;49.104;11.396;2024-01-06T07:53:12;96917.75;;;2.41;100.00
48563;BME280;34981;49.104;11.396;2024-01-06T07:55:41;96916.91;;;2.40;100.00
48563;BME280;34981;49.104;11.396;2024-01-06T07:58:08;96928.13;;;2.42;100.00
48563;BME280;34981;49.104;11.396;2024-01-06T08:00:35;96929.38;;;2.40;100.00
48563;BME280;34981;49.104;11.396;2024-01-06T08:03:03;96936.50;;;2.39;100.00
48563;BME280;34981;49.104;11.396;2024-01-06T08:05:33;96932.41;;;2.37;100.00
48563;BME280;34981;49.104;11.396;2024-01-06T08:08:00;96935.69;;;2.39;100.00
48563;BME280;34981;49.104;11.396;2024-01-06T08:10:27;96938.53;;;2.37;100.00
48563;BME280;34981;49.104;11.396;2024-01-06T08:12:54;96946.47;;;2.37;100.00
48563;BME280;34981;49.104;11.396;2024-01-06T08:15:21;96948.94;;;2.39;100.00
48563;BME280;34981;49.104;11.396;2024-01-06T08:17:49;96966.69;;;2.38;100.00
48563;BME280;34981;49.104;11.396;2024-01-06T08:20:16;96960.38;;;2.39;100.00
48563;BME280;34981;49.104;11.396;2024-01-06T08:22:43;96964.47;;;2.42;100.00
48563;BME280;34981;49.104;11.396;2024-01-06T08:25:11;96972.66;;;2.40;100.00
48563;BME280;34981;49.104;11.396;2024-01-06T08:27:38;96977.13;;;2.40;100.00
48563;BME280;34981;49.104;11.396;2024-01-06T08:30:05;96988.75;;;2.39;100.00
48563;BME280;34981;49.104;11.396;2024-01-06T08:32:33;96996.53;;;2.40;100.00
48563;BME280;34981;49.104;11.396;2024-01-06T08:35:00;97003.72;;;2.46;100.00
48563;BME280;34981;49.104;11.396;2024-01-06T08:37:28;97004.28;;;2.42;100.00
48563;BME280;34981;49.104;11.396;2024-01-06T08:39:55;97005.09;;;2.42;100.00
48563;BME280;34981;49.104;11.396;2024-01-06T08:42:22;97019.63;;;2.46;100.00
48563;BME280;34981;49.104;11.396;2024-01-06T08:44:50;97028.41;;;2.47;100.00
48563;BME280;34981;49.104;11.396;2024-01-06T08:47:17;97019.44;;;2.48;100.00
48563;BME280;34981;49.104;11.396;2024-01-06T08:49:44;97021.88;;;2.49;100.00
48563;BME280;34981;49.104;11.396;2024-01-06T08:52:11;97021.50;;;2.52;100.00
48563;BME280;34981;49.104;11.396;2024-01-06T08:54:39;97022.34;;;2.53;100.00
48563;BME280;34981;49.104;11.396;2024-01-06T08:57:06;97025.00;;;2.53;100.00
48563;BME280;34981;49.104;11.396;2024-01-06T08:59:33;97027.81;;;2.51;100.00
48563;BME280;34981;49.104;11.396;2024-01-06T09:02:00;97031.31;;;2.52;100.00
48563;BME280;34981;49.104;11.396;2024-01-06T09:04:28;97038.25;;;2.53;100.00
48563;BME280;34981;49.104;11.396;2024-01-06T09:06:55;97044.56;;;2.52;100.00
48563;BME280;34981;49.104;11.396;2024-01-06T09:09:22;97040.72;;;2.54;100.00
48563;BME280;34981;49.104;11.396;2024-01-06T09:11:50;97051.13;;;2.56;100.00
48563;BME280;34981;49.104;11.396;2024-01-06T09:14:18;97054.41;;;2.58;100.00
48563;BME280;34981;49.104;11.396;2024-01-06T09:16:45;97064.03;;;2.59;100.00
48563;BME280;34981;49.104;11.396;2024-01-06T09:19:12;97067.31;;;2.61;100.00
48563;BME280;34981;49.104;11.396;2024-01-06T09:21:39;97076.94;;;2.62;100.00
48563;BME280;34981;49.104;11.396;2024-01-06T09:24:07;97077.53;;;2.64;100.00
48563;BME280;34981;49.104;11.396;2024-01-06T09:26:34;97076.53;;;2.65;100.00
48563;BME280;34981;49.104;11.396;2024-01-06T09:29:01;97090.63;;;2.65;100.00
48563;BME280;34981;49.104;11.396;2024-01-06T09:31:29;97102.88;;;2.66;100.00
48563;BME280;34981;49.104;11.396;2024-01-06T09:34:00;97103.72;;;2.67;100.00
48563;BME280;34981;49.104;11.396;2024-01-06T09:36:30;97105.34;;;2.68;100.00
48563;BME280;34981;49.104;11.396;2024-01-06T09:38:57;97100.69;;;2.70;100.00
48563;BME280;34981;49.104;11.396;2024-01-06T09:41:24;97105.78;;;2.71;100.00
48563;BME280;34981;49.104;11.396;2024-01-06T09:43:52;97123.34;;;2.72;100.00
48563;BME280;34981;49.104;11.396;2024-01-06T09:46:25;97129.13;;;2.76;100.00
48563;BME280;34981;49.104;11.396;2024-01-06T09:48:53;97130.75;;;2.77;100.00
48563;BME280;34981;49.104;11.396;2024-01-06T09:51:22;97136.50;;;2.81;100.00
48563;BME280;34981;49.104;11.396;2024-01-06T09:53:56;97144.28;;;2.82;100.00
48563;BME280;34981;49.104;11.396;2024-01-06T09:56:25;97137.69;;;2.78;100.00
48563;BME280;34981;49.104;11.396;2024-01-06T09:58:52;97142.56;;;2.74;100.00
48563;BME280;34981;49.104;11.396;2024-01-06T10:01:20;97145.41;;;2.73;100.00
48563;BME280;34981;49.104;11.396;2024-01-06T10:03:47;97147.44;;;2.71;100.00
48563;BME280;34981;49.104;11.396;2024-01-06T10:06:15;97146.59;;;2.70;100.00
48563;BME280;34981;49.104;11.396;2024-01-06T10:08:43;97147.44;;;2.71;100.00
48563;BME280;34981;49.104;11.396;2024-01-06T10:11:10;97137.03;;;2.69;100.00
48563;BME280;34981;49.104;11.396;2024-01-06T10:13:37;97150.91;;;2.71;100.00
48563;BME280;34981;49.104;11.396;2024-01-06T10:16:05;97148.91;;;2.73;100.00
48563;BME280;34981;49.104;11.396;2024-01-06T10:18:33;97163.00;;;2.74;100.00
48563;BME280;34981;49.104;11.396;2024-01-06T10:21:03;97159.34;;;2.75;100.00
48563;BME280;34981;49.104;11.396;2024-01-06T10:23:31;97167.94;;;2.77;100.00
48563;BME280;34981;49.104;11.396;2024-01-06T10:25:58;97162.22;;;2.80;100.00
48563;BME280;34981;49.104;11.396;2024-01-06T10:28:30;97166.16;;;2.84;100.00
48563;BME280;34981;49.104;11.396;2024-01-06T10:30:57;97168.00;;;2.84;100.00
48563;BME280;34981;49.104;11.396;2024-01-06T10:33:25;97161.03;;;2.83;100.00
48563;BME280;34981;49.104;11.396;2024-01-06T10:35:53;97157.38;;;2.84;100.00
48563;BME280;34981;49.104;11.396;2024-01-06T10:38:23;97170.44;;;2.85;100.00
48563;BME280;34981;49.104;11.396;2024-01-06T10:41:11;97156.91;;;2.80;100.00
48563;BME280;34981;49.104;11.396;2024-01-06T10:43:38;97160.38;;;2.81;100.00
48563;BME280;34981;49.104;11.396;2024-01-06T10:46:08;97154.91;;;2.82;100.00
48563;BME280;34981;49.104;11.396;2024-01-06T10:48:39;97158.56;;;2.81;100.00
48563;BME280;34981;49.104;11.396;2024-01-06T10:51:10;97160.22;;;2.82;100.00
48563;BME280;34981;49.104;11.396;2024-01-06T10:53:39;97160.03;;;2.84;100.00
48563;BME280;34981;49.104;11.396;2024-01-06T10:56:08;97152.25;;;2.82;100.00
48563;BME280;34981;49.104;11.396;2024-01-06T10:58:37;97161.84;;;2.83;100.00
48563;BME280;34981;49.104;11.396;2024-01-06T11:01:10;97156.53;;;2.83;100.00
48563;BME280;34981;49.104;11.396;2024-01-06T11:03:39;97158.63;;;2.88;100.00
48563;BME280;34981;49.104;11.396;2024-01-06T11:06:07;97154.13;;;2.88;100.00
48563;BME280;34981;49.104;11.396;2024-01-06T11:08:42;97152.72;;;2.92;100.00
48563;BME280;34981;49.104;11.396;2024-01-06T11:11:19;97136.34;;;2.89;100.00
48563;BME280;34981;49.104;11.396;2024-01-06T11:13:47;97134.91;;;2.86;100.00
48563;BME280;34981;49.104;11.396;2024-01-06T11:19:01;97119.31;;;2.77;100.00
48563;BME280;34981;49.104;11.396;2024-01-06T11:21:33;97114.19;;;2.75;100.00
48563;BME280;34981;49.104;11.396;2024-01-06T11:26:33;97102.28;;;2.71;100.00
48563;BME280;34981;49.104;11.396;2024-01-06T11:29:01;97105.78;;;2.71;100.00
48563;BME280;34981;49.104;11.396;2024-01-06T11:31:31;97106.88;;;2.77;100.00
48563;BME280;34981;49.104;11.396;2024-01-06T11:34:17;97110.34;;;2.78;100.00
48563;BME280;34981;49.104;11.396;2024-01-06T11:36:47;97095.59;;;2.75;100.00
48563;BME280;34981;49.104;11.396;2024-01-06T11:39:37;97099.28;;;2.74;100.00
48563;BME280;34981;49.104;11.396;2024-01-06T11:42:09;97083.97;;;2.76;100.00
48563;BME280;34981;49.104;11.396;2024-01-06T11:44:38;97086.00;;;2.74;100.00
48563;BME280;34981;49.104;11.396;2024-01-06T11:47:05;97083.53;;;2.72;100.00
48563;BME280;34981;49.104;11.396;2024-01-06T11:49:33;97079.22;;;2.71;100.00
48563;BME280;34981;49.104;11.396;2024-01-06T11:52:00;97067.41;;;2.74;100.00
48563;BME280;34981;49.104;11.396;2024-01-06T11:54:28;97072.34;;;2.77;100.00
48563;BME280;34981;49.104;11.396;2024-01-06T11:56:55;97079.91;;;2.80;100.00
48563;BME280;34981;49.104;11.396;2024-01-06T11:59:23;97075.41;;;2.81;100.00
48563;BME280;34981;49.104;11.396;2024-01-06T12:01:50;97065.44;;;2.83;100.00
48563;BME280;34981;49.104;11.396;2024-01-06T12:04:18;97053.53;;;2.79;100.00
48563;BME280;34981;49.104;11.396;2024-01-06T12:06:45;97056.00;;;2.80;100.00
48563;BME280;34981;49.104;11.396;2024-01-06T12:09:13;97050.31;;;2.83;100.00
48563;BME280;34981;49.104;11.396;2024-01-06T12:11:41;97044.59;;;2.86;100.00
48563;BME280;34981;49.104;11.396;2024-01-06T12:14:11;97038.88;;;2.83;100.00
48563;BME280;34981;49.104;11.396;2024-01-06T12:16:39;97029.47;;;2.80;100.00
48563;BME280;34981;49.104;11.396;2024-01-06T12:19:06;97019.84;;;2.79;100.00
48563;BME280;34981;49.104;11.396;2024-01-06T12:21:33;97015.16;;;2.81;100.00
48563;BME280;34981;49.104;11.396;2024-01-06T12:24:17;97010.50;;;2.83;100.00
48563;BME280;34981;49.104;11.396;2024-01-06T12:26:47;97002.13;;;2.86;100.00
48563;BME280;34981;49.104;11.396;2024-01-06T12:29:15;96993.97;;;2.88;100.00
48563;BME280;34981;49.104;11.396;2024-01-06T12:31:43;96996.81;;;2.86;100.00
48563;BME280;34981;49.104;11.396;2024-01-06T12:34:11;96989.47;;;2.88;100.00
48563;BME280;34981;49.104;11.396;2024-01-06T12:36:38;96978.84;;;2.88;100.00
48563;BME280;34981;49.104;11.396;2024-01-06T12:39:10;96978.47;;;2.91;100.00
48563;BME280;34981;49.104;11.396;2024-01-06T12:41:37;96972.94;;;2.93;100.00
48563;BME280;34981;49.104;11.396;2024-01-06T12:44:05;96968.25;;;2.95;100.00
48563;BME280;34981;49.104;11.396;2024-01-06T12:46:32;96955.41;;;2.92;100.00
48563;BME280;34981;49.104;11.396;2024-01-06T12:48:59;96956.81;;;2.94;100.00
48563;BME280;34981;49.104;11.396;2024-01-06T12:51:27;96947.44;;;2.92;100.00
48563;BME280;34981;49.104;11.396;2024-01-06T12:53:54;96955.19;;;2.93;100.00
48563;BME280;34981;49.104;11.396;2024-01-06T12:56:21;96952.53;;;2.93;100.00
48563;BME280;34981;49.104;11.396;2024-01-06T12:58:48;96943.16;;;2.97;100.00